Tabella Stazioni Meteo Lazio



Provincia di Frosinone
ID Località Altitudine Data Temp (°C) Temp Min (°C) Temp Max (°C) Hum (%) Pressure (hPa) Wind (Km/h) Wind Dir Wind Gust (Km/h) Wind Gust Max (Km/h) Rain (mm) Dewpoint (°C)
ILAZIOCA7 Stazione meteo Campoli Appennino – Via Treo 499 m s.l.m. 2019-02-21 22:20:00 6.5 3.3 14.7 78 1027.0 0.0 NNE 0.0 0.0 0.00 3.0
ILAZIOPI2 Stazione meteo Pico – Colleponte 114 m s.l.m. 2019-02-21 21:04:23 7.0 0.9 16.4 89 1026.2 0.0 OSO 0.0 20.9 0.00 5.3
INOWUND02 Stazione meteo Alvito – Colle Santa Lucia 465 m s.l.m. 2019-02-21 21:39:46 6.4 2.6 18.6 75 1017.0 2.5 W 3.6 14.8 0.00 2.3
ILAZIOPO8 Stazione meteo Pontecorvo – Via Babuino 94 m s.l.m. 2019-02-21 21:04:57 8.5 0.6 16.6 82 1026.2 0.0 NO 1.6 14.5 0.00 5.6
Provincia di Latina
ID Località Altitudine Data Temp (°C) Temp Min (°C) Temp Max (°C) Hum (%) Pressure (hPa) Wind (Km/h) Wind Dir Wind Gust (Km/h) Wind Gust Max (Km/h) Rain (mm) Dewpoint (°C)
ILAZIOCI9 Stazione meteo Cisterna – Centro Storico 81 m s.l.m. 2019-02-21 21:40:09 8.1 3.5 19.7 80 1021.9 2.5 N 3.6 17.3 0.00 4.9
ICISTERN7 Stazione meteo Cisterna – Indinvest LT 42 m s.l.m. 2019-02-21 21:40:09 8.2 4.3 16.3 79 1027.3 1.6 NNW 1.6 20.9 0.00 4.7
ILAZIOLA18 Stazione meteo Cisterna – San Valentino 93 m s.l.m. 2019-02-21 21:40:08 6.6 2.6 16.2 85 1041.7 2.5 W 5.0 27.0 0.00 4.3
ILATINA13 Stazione meteo Latina – Borgo Montello 31 m s.l.m. 2019-02-21 21:40:08 0.0 0.0 0.0 0 1021.5 0.0 N 0.0 0.0 0.00 0.0
Provincia di Roma
ID Località Altitudine Data Temp (°C) Temp Min (°C) Temp Max (°C) Hum (%) Pressure (hPa) Wind (Km/h) Wind Dir Wind Gust (Km/h) Wind Gust Max (Km/h) Rain (mm) Dewpoint (°C)
IROCCADI23 Stazione meteo Rocca di Papa – Pratoni del Vivaro 528 m s.l.m. 2019-02-21 22:24:10 -2.1 -7.0 12.5 95 1026.0 0.0 South 0.0 11.2 0.00 -3.0
IVELLETR14 Stazione meteo Velletri – Crocefissi 227m 227 m s.l.m. 2019-02-21 22:40:04 2.4 1.0 14.6 99 1026.0 2.2 WSW 3.6 11.2 0.00 2.0
ILAZIOVE10 Stazione meteo Velletri – Crocefissi 259m 259 m s.l.m. 2019-02-21 21:40:07 6.6 5.2 15.2 87 1027.7 3.6 N 6.1 22.0 0.00 4.6
IROMAVEL2 Stazione meteo Velletri – 5 Archi 188 m s.l.m. 2019-02-21 21:39:22 4.6 1.8 15.5 81 1025.0 2.2 N 5.0 23.4 0.00 1.6
IVELLETR20 Stazione meteo Velletri – Centro 380 m s.l.m. 2019-02-21 21:40:09 8.8 7.4 13.4 77 1009.3 3.6 N 5.0 41.8 0.00 5.0
IVELLETR22 Stazione meteo Velletri – San Clemente 335 m s.l.m. 2019-02-21 21:39:55 10.0 7.9 14.4 36 1015.5 3.6 E 5.0 30.6 0.00 -4.4
IVELLETR18 Stazione meteo Velletri – Fontana Fiume 512 m s.l.m. 2019-02-21 22:13:46 9.0 6.5 12.6 72 1026.0 1.1 North 3.6 24.5 0.00 4.0
ILAZIOLA23 Stazione meteo Lariano – Centro 370 m s.l.m. 2019-02-21 22:35:00 8.6 4.7 14.3 72 1026.0 1.8 WSW 4.0 15.8 0.00 4.0
ILAZIOMA6 Stazione meteo Artena – Macere 345 m s.l.m. 2019-02-21 22:34:43 7.2 3.2 14.6 82 1026.0 0.0 North 0.0 18.3 0.00 4.0
ILAZIOAR6 Stazione meteo Ardea – Via Pavia 20 m s.l.m. 2019-01-27 19:21:20 0.0 0.0 0.0 0 0.0 0.0 N 0.0 0.0 0.00 0.0
ILAZIOPO4 Stazione meteo Pomezia – Via Federico Fellini 78 m s.l.m. 2019-02-21 21:39:10 10.3 5.4 15.4 87 1026.3 0.0 NW 0.0 14.5 0.00 8.2
INOWUND03 Stazione meteo Rocca di Papa – Monte Faete 970 m s.l.m. 2018-08-28 11:15:00 20.7 20.7 20.7 64 1017.1 2.5 SW 3.6 3.6 0.00 13.6
ILAZIOCE8 Stazione meteo Cerveteri – Madonna dei Canneti 106 m s.l.m. 2019-02-21 22:40:01 10.7 6.4 14.7 65 1027.0 0.0 NNE 0.0 24.1 0.00 4.0
Provincia di Viterbo
ID Località Altitudine Data Temp (°C) Temp Min (°C) Temp Max (°C) Hum (%) Pressure (hPa) Wind (Km/h) Wind Dir Wind Gust (Km/h) Wind Gust Max (Km/h) Rain (mm) Dewpoint (°C)
INEPI3 Stazione meteo Nepi – Via Umiltà 216 m s.l.m. 2019-02-21 22:24:49 8.5 -2.7 15.3 84 1026.0 6.1 WNW 7.2 14.8 0.00 6.0
ILAZIOCI6 Stazione meteo Civita Castellana – Via del Forte 135 m s.l.m. 0209-02-09 23:59:58 8.2 0.0 14.8 10 1023.8 0.5 292 0.0 13.6 0.00 -21.7
IVITERBO7 Stazione meteo Marta – Via Laertina 320 m s.l.m. 2019-02-21 21:04:33 7.8 4.9 14.4 89 1024.8 6.5 SW 6.5 31.0 0.00 6.1
ILAZIOVI8 Stazione meteo San Lorenzo Nuovo – Piazza Europa 519 m s.l.m. 2019-02-21 21:04:56 7.6 5.1 13.6 87 1024.7 0.0 N 0.0 16.9 0.00 5.6